Strona główna
METAR-TAF:

METAR-TAF

Lotnisko :

Port lotniczy Gibraltar

Gibraltar, Gibraltar

Szerokość geograficzna: 36-09N, Długość geograficzna: 005-21W, wysokość: 5 m

Aktualna obserwacja pogody

Raport powstał 36 minut temu, godzina 10:20 UTC
Wiatr 3 kt od zachód
Temperatura 14°C
Wilgotność 77%
Ciśnienie 1019 hPa
Widzialność 10 km lub więcej
Mało chmury na wysokości 2500 ft
Przerywane chmury na wysokości 25000 ft

METAR: LXGB 191020Z 28003KT 9999 FEW025 BKN250 14/10 Q1019 NOSIG RMK BLU BLU

czas: 11:56 (10:56 UTC)

Prognoza

Raport powstał 3 godziny i 16 minut temu, godzina 07:40 UTC
Prognoza ważna od 19 godzina 09 UTC do 19 godzina 18 UTC
Wiatr 7 kt od zachód
Widzialność 10 km lub więcej
Mało chmury na wysokości 2500 ft
Prawdopodobieństwo 30% :
Przejściowo
od 19 godzina 12 UTC do 19 godzina 18 UTC
Rozproszone chmury na wysokości 2400 ft

TAF: LXGB 190740Z 1909/1918 27007KT 9999 FEW025 PROB30 TEMPO 1912/1918 SCT024

Obserwacja i prognoza pogody dla ponad 4000 lotnisk (raport METAR i TAF).

Dostępne stacje oznaczono żółtymi i czerwonymi punktami na mapie.

Najedź kursorem aby zobaczyć nazwę stacji.

Kliknij aby zobaczyć obserwacje i prognozy pogody.

Aby zmienić mapę: kliknij na zielony przycisk z czarnym krzyżykiem, aby powiększyć; na zielony przycisk z myślnikiem, aby pomniejszyć; na zielone strzałki, aby przejść do map sąsiednich.


METAR-TAF: